Time;durP1;ratioP1;P1;durP2;ratioP2;P2;SDS_P1;SDS_P2;PMS_P1;PMS_P2;Temp;Humidity;BMP_temperature;BMP_pressure;BME280_temperature;BME280_humidity;BME280_pressure;Samples;Min_cycle;Max_cycle;Signal;HPM_P1;HPM_P2
2023/11/03 00:00:35;;;;;;;6.05;3.35;;;;;;;11.94;67.88;98338.25;1867245;76;25623;-50
2023/11/03 00:03:06;;;;;;;7.83;3.52;;;;;;;11.97;67.98;98339.47;1838737;76;26748;-50
2023/11/03 00:05:32;;;;;;;;;;;;;;;11.98;67.50;98329.41;1869877;76;25682;-51
2023/11/03 00:07:58;;;;;;;4.55;3.12;;;;;;;12.02;67.54;98334.28;1867335;76;25356;-52
2023/11/03 00:10:24;;;;;;;7.47;3.70;;;;;;;12.04;67.54;98334.72;1867245;76;25504;-50
2023/11/03 00:12:50;;;;;;;6.17;3.10;;;;;;;12.06;67.36;98344.62;1837548;76;25652;-53
2023/11/03 00:15:20;;;;;;;7.87;3.02;;;;;;;12.07;67.18;98350.23;1867171;76;27566;-51
2023/11/03 00:17:47;;;;;;;11.38;3.08;;;;;;;12.08;67.18;98352.58;1838254;76;25665;-50
2023/11/03 00:20:14;;;;;;;6.60;3.45;;;;;;;12.11;66.80;98338.30;1867151;76;25470;-51
2023/11/03 00:22:42;;;;;;;6.92;3.12;;;;;;;12.13;66.94;98335.22;1867269;76;25526;-52
2023/11/03 00:25:14;;;;;;;10.53;3.70;;;;;;;12.15;66.94;98333.70;1867367;76;25417;-52
2023/11/03 00:27:46;;;;;;;6.05;3.27;;;;;;;12.18;66.75;98341.68;1867420;76;28132;-50
2023/11/03 00:30:16;;;;;;;6.83;3.05;;;;;;;12.18;66.59;98328.12;1867230;76;27369;-51
2023/11/03 00:32:43;;;;;;;3.92;3.05;;;;;;;12.19;66.51;98329.70;1867384;76;25269;-50
2023/11/03 00:35:11;;;;;;;6.65;2.83;;;;;;;12.21;66.38;98325.24;1837707;76;25909;-52
2023/11/03 00:37:40;;;;;;;4.72;3.27;;;;;;;12.24;66.31;98332.64;1867458;76;25556;-51
2023/11/03 00:40:13;;;;;;;4.80;2.90;;;;;;;12.27;66.05;98319.72;1867425;76;28066;-51
2023/11/03 00:42:42;;;;;;;4.85;2.98;;;;;;;12.27;65.41;98297.45;1867357;76;25596;-54
2023/11/03 00:45:12;;;;;;;4.85;3.33;;;;;;;12.30;66.00;98320.34;1867410;76;25589;-50
2023/11/03 00:47:38;;;;;;;6.45;3.05;;;;;;;12.31;65.36;98321.33;1867477;76;25544;-50
2023/11/03 00:50:09;;;;;;;6.45;3.12;;;;;;;12.33;65.66;98312.84;1867367;76;25531;-52
2023/11/03 00:52:37;;;;;;;4.85;2.95;;;;;;;12.35;65.41;98301.63;1867385;76;27510;-51
2023/11/03 00:55:08;;;;;;;6.65;3.42;;;;;;;12.35;65.54;98303.75;1867245;76;25534;-52
2023/11/03 00:57:37;;;;;;;6.53;3.30;;;;;;;12.38;65.41;98299.51;1867408;76;25431;-50
2023/11/03 01:00:12;;;;;;;3.90;2.60;;;;;;;12.40;65.16;98299.94;1833386;78;26405;-52
2023/11/03 01:02:42;;;;;;;6.17;3.35;;;;;;;12.40;65.24;98290.45;1806434;78;25640;-51
2023/11/03 01:05:14;;;;;;;6.03;3.42;;;;;;;12.39;65.15;98292.36;1833345;78;27610;-52
2023/11/03 01:07:41;;;;;;;4.45;3.02;;;;;;;12.39;65.00;98282.88;1833317;78;25601;-52
2023/11/03 01:10:15;;;;;;;4.22;2.80;;;;;;;12.37;64.73;98274.34;1833321;78;25752;-50
2023/11/03 01:12:39;;;;;;;3.77;2.83;;;;;;;12.35;64.91;98264.45;1832353;78;26339;-51
2023/11/03 01:15:09;;;;;;;5.40;3.27;;;;;;;12.37;64.94;98266.79;1833393;78;25624;-52
2023/11/03 01:17:35;;;;;;;4.33;3.08;;;;;;;12.35;64.85;98265.80;1805386;78;27460;-54
2023/11/03 01:20:01;;;;;;;5.60;3.70;;;;;;;12.34;64.61;98261.52;1833339;78;25584;-52
2023/11/03 01:22:32;;;;;;;5.45;3.02;;;;;;;12.35;64.53;98252.83;1833298;78;25548;-52
2023/11/03 01:25:00;;;;;;;8.48;3.27;;;;;;;12.35;64.56;98247.41;1833489;78;34731;-49
2023/11/03 01:27:29;;;;;;;6.25;3.58;;;;;;;12.35;64.38;98247.41;1833365;78;25549;-51
2023/11/03 01:29:55;;;;;;;4.00;3.08;;;;;;;12.33;64.20;98237.70;1833484;78;27488;-50
2023/11/03 01:32:24;;;;;;;4.08;2.90;;;;;;;12.33;64.06;98243.13;1833196;78;25431;-51
2023/11/03 01:34:52;;;;;;;4.78;3.10;;;;;;;12.33;64.11;98234.22;1833541;78;25514;-51
2023/11/03 01:37:19;;;;;;;6.90;3.67;;;;;;;12.33;64.11;98242.36;1778879;78;25620;-50
2023/11/03 01:39:45;;;;;;;5.45;2.90;;;;;;;12.32;63.91;98255.69;1833292;78;25510;-50
2023/11/03 01:42:13;;;;;;;7.00;2.98;;;;;;;12.30;63.94;98241.73;1833338;78;27469;-51
2023/11/03 01:44:42;;;;;;;5.25;4.28;;;;;;;12.29;63.81;98240.16;1805502;78;25382;-51
2023/11/03 01:47:08;;;;;;;3.27;2.90;;;;;;;12.30;63.87;98236.31;1833585;78;25503;-51
2023/11/03 01:49:35;;;;;;;7.42;3.30;;;;;;;12.31;63.66;98248.14;1805532;78;27621;-52
2023/11/03 01:52:04;;;;;;;4.67;2.83;;;;;;;12.29;63.65;98236.89;1833342;78;25445;-52
2023/11/03 01:54:33;;;;;;;6.97;3.15;;;;;;;12.25;63.31;98221.15;1833347;78;27489;-51
2023/11/03 01:57:00;;;;;;;7.15;3.12;;;;;;;12.23;63.35;98211.26;1833551;78;25388;-51
2023/11/03 01:59:28;;;;;;;4.97;3.20;;;;;;;12.23;63.52;98207.78;1833371;78;25369;-51
2023/11/03 02:01:58;;;;;;;24.18;22.27;;;;;;;12.19;63.55;98204.23;1833540;78;25676;-51
2023/11/03 02:04:26;;;;;;;5.65;3.40;;;;;;;12.18;63.37;98207.53;1804115;78;25454;-51
2023/11/03 02:06:53;;;;;;;4.05;3.00;;;;;;;12.17;63.52;98205.19;1803913;78;27730;-52
2023/11/03 02:09:21;;;;;;;5.95;3.67;;;;;;;12.17;63.40;98207.89;1833347;78;26261;-51
2023/11/03 02:11:48;;;;;;;3.98;3.55;;;;;;;12.15;63.20;98217.16;1833292;78;25376;-51
2023/11/03 02:14:17;;;;;;;4.37;3.40;;;;;;;12.13;63.37;98215.40;1833266;78;25629;-54
2023/11/03 02:16:45;;;;;;;6.80;3.65;;;;;;;12.11;63.26;98219.06;1833350;78;25604;-53
2023/11/03 02:19:12;;;;;;;6.65;3.22;;;;;;;12.10;63.31;98209.36;1815332;78;27541;-54
2023/11/03 02:21:42;;;;;;;6.33;3.00;;;;;;;12.10;63.20;98205.88;1789563;79;26104;-52
2023/11/03 02:24:11;;;;;;;4.80;3.05;;;;;;;12.08;63.23;98200.83;1814785;79;25408;-51
2023/11/03 02:26:39;;;;;;;6.75;2.98;;;;;;;12.08;63.01;98195.99;1814859;79;25996;-52
2023/11/03 02:29:05;;;;;;;5.30;3.40;;;;;;;12.06;63.24;98180.09;1814743;79;25585;-50
2023/11/03 02:31:33;;;;;;;5.65;2.80;;;;;;;12.05;63.24;98185.88;1814744;79;28142;-50
2023/11/03 02:34:00;;;;;;;5.42;2.83;;;;;;;12.04;63.19;98173.50;1814627;79;25538;-51
2023/11/03 02:36:26;;;;;;;5.28;3.20;;;;;;;12.04;63.12;98167.50;1814774;79;25425;-51
2023/11/03 02:38:55;;;;;;;4.87;2.70;;;;;;;12.06;63.20;98169.27;1814702;77;25506;-52
2023/11/03 02:41:23;;;;;;;4.17;2.60;;;;;;;12.07;63.10;98167.33;1814765;79;25415;-51
2023/11/03 02:43:50;;;;;;;28.02;25.90;;;;;;;12.06;63.20;98176.03;1792142;79;27469;-51
2023/11/03 02:46:23;;;;;;;8.30;2.77;;;;;;;12.04;63.02;98174.86;1792412;79;25903;-52
2023/11/03 02:48:48;;;;;;;5.92;3.50;;;;;;;12.01;62.73;98178.30;1813951;78;25518;-52
2023/11/03 02:51:17;;;;;;;4.05;2.80;;;;;;;12.03;62.96;98178.70;1814714;79;25604;-53
2023/11/03 02:53:45;;;;;;;7.00;3.00;;;;;;;12.05;62.93;98175.81;1814890;79;32289;-51
2023/11/03 02:56:24;;;;;;;5.83;3.12;;;;;;;12.07;62.87;98183.03;1814434;79;27868;-51
2023/11/03 02:58:53;;;;;;;4.47;2.87;;;;;;;12.07;62.81;98183.58;1814827;79;25371;-54
2023/11/03 03:01:36;;;;;;;4.92;2.90;;;;;;;12.05;62.85;98178.53;1814864;79;25521;-54
2023/11/03 03:04:04;;;;;;;6.33;2.80;;;;;;;12.01;62.67;98173.66;1791707;79;25584;-52
2023/11/03 03:06:30;;;;;;;5.03;3.00;;;;;;;11.99;62.78;98174.61;1814850;79;25466;-54
2023/11/03 03:08:56;;;;;;;4.70;3.25;;;;;;;11.96;62.61;98186.95;1814784;79;27661;-51
2023/11/03 03:11:23;;;;;;;4.37;2.77;;;;;;;11.94;62.66;98174.34;1814666;79;25788;-51
2023/11/03 03:13:49;;;;;;;5.90;3.02;;;;;;;11.93;62.55;98179.55;1791925;79;25621;-53
2023/11/03 03:16:24;;;;;;;6.50;3.12;;;;;;;11.90;62.55;98182.19;1814700;77;25608;-50
2023/11/03 03:18:52;;;;;;;5.87;3.02;;;;;;;11.90;62.64;98179.48;1814635;79;25371;-51
2023/11/03 03:21:19;;;;;;;5.30;2.72;;;;;;;11.88;62.49;98193.39;1814858;79;27458;-51
2023/11/03 03:23:49;;;;;;;7.00;3.42;;;;;;;11.86;62.75;98175.97;1791682;79;25625;-50
2023/11/03 03:26:16;;;;;;;4.62;2.75;;;;;;;11.84;62.61;98179.63;1814833;79;25513;-52
2023/11/03 03:28:43;;;;;;;4.28;3.25;;;;;;;11.82;62.56;98181.92;1814664;79;25454;-51
2023/11/03 03:31:11;;;;;;;3.65;3.10;;;;;;;11.78;62.69;98188.63;1814775;79;25601;-51
2023/11/03 03:33:39;;;;;;;6.50;3.08;;;;;;;11.75;62.69;98184.73;1814813;79;27451;-53
2023/11/03 03:36:09;;;;;;;8.45;3.30;;;;;;;11.73;62.80;98189.75;1814633;79;25370;-52
2023/11/03 03:38:37;;;;;;;8.23;3.37;;;;;;;11.71;62.62;98182.58;1791984;79;25489;-52
2023/11/03 03:41:03;;;;;;;4.58;3.20;;;;;;;11.69;62.76;98180.78;1814777;79;25572;-51
2023/11/03 03:43:30;;;;;;;3.92;3.02;;;;;;;11.66;62.73;98186.16;1814682;79;25546;-50
2023/11/03 03:45:58;;;;;;;4.62;2.98;;;;;;;11.65;62.77;98188.67;1814666;79;27466;-53
2023/11/03 03:48:27;;;;;;;7.75;3.35;;;;;;;11.61;62.79;98176.42;1791081;79;25470;-51
2023/11/03 03:50:53;;;;;;;6.60;2.92;;;;;;;11.59;62.83;98178.16;1814944;79;25544;-52
2023/11/03 03:53:19;;;;;;;14.68;13.25;;;;;;;11.55;62.85;98171.91;1814750;79;25549;-53
2023/11/03 03:55:47;;;;;;;7.05;3.50;;;;;;;11.54;62.95;98173.07;1814832;79;25367;-50
2023/11/03 03:58:14;;;;;;;7.80;3.92;;;;;;;11.53;62.98;98173.44;1814918;79;27579;-52
2023/11/03 04:00:41;;;;;;;6.72;3.90;;;;;;;11.50;62.96;98169.52;1814855;79;25503;-53
2023/11/03 04:03:10;;;;;;;4.90;3.52;;;;;;;11.45;62.88;98161.72;1814841;79;25602;-52
2023/11/03 04:05:37;;;;;;;6.28;3.60;;;;;;;11.40;62.96;98150.63;1815084;79;26269;-51
2023/11/03 04:08:05;;;;;;;4.75;3.33;;;;;;;11.34;62.95;98148.60;1815055;77;25557;-51
2023/11/03 04:10:31;;;;;;;6.72;3.75;;;;;;;11.30;63.08;98143.72;1814865;79;28058;-52
2023/11/03 04:12:57;;;;;;;7.97;3.35;;;;;;;11.26;63.04;98136.14;1814731;79;25416;-50
2023/11/03 04:15:28;;;;;;;5.28;3.83;;;;;;;11.20;63.11;98132.95;1791907;79;25621;-50
2023/11/03 04:18:07;;;;;;;10.25;3.55;;;;;;;11.15;63.20;98127.86;1816031;78;26001;-52
2023/11/03 04:20:33;;;;;;;6.40;3.83;;;;;;;11.11;63.38;98127.03;1833824;78;25440;-51
2023/11/03 04:22:59;;;;;;;9.58;3.62;;;;;;;11.06;63.42;98121.36;1803157;78;27847;-52
2023/11/03 04:25:26;;;;;;;6.80;3.45;;;;;;;10.99;63.47;98119.33;1833250;78;25366;-51
2023/11/03 04:27:52;;;;;;;7.20;4.70;;;;;;;10.97;63.65;98117.56;1833485;78;25607;-50
2023/11/03 04:30:18;;;;;;;6.87;3.87;;;;;;;10.95;63.66;98113.68;1833468;78;25573;-51
2023/11/03 04:32:45;;;;;;;5.83;3.80;;;;;;;10.91;63.63;98111.48;1833423;78;25531;-51
2023/11/03 04:35:14;;;;;;;11.12;4.45;;;;;;;10.88;63.78;98103.53;1833383;78;27472;-52
2023/11/03 04:37:40;;;;;;;6.17;3.60;;;;;;;10.86;63.71;98103.67;1833537;78;25818;-53
2023/11/03 04:40:11;;;;;;;7.37;3.60;;;;;;;10.83;63.83;98101.14;1833366;78;25685;-52
2023/11/03 04:42:37;;;;;;;10.68;4.53;;;;;;;10.83;63.85;98103.27;1833383;78;25564;-52
2023/11/03 04:45:08;;;;;;;4.65;3.72;;;;;;;10.82;63.88;98099.57;1833420;78;25395;-50
2023/11/03 04:47:38;;;;;;;8.43;4.62;;;;;;;10.81;63.87;98092.59;1833470;78;27451;-51
2023/11/03 04:50:10;;;;;;;6.22;3.80;;;;;;;10.79;63.82;98087.54;1833318;78;25762;-51
2023/11/03 04:52:43;;;;;;;7.00;3.67;;;;;;;10.78;63.85;98079.23;1833497;78;25591;-50
2023/11/03 04:55:09;;;;;;;6.85;4.08;;;;;;;10.77;63.92;98075.55;1833406;78;25557;-53
2023/11/03 04:57:39;;;;;;;7.08;4.35;;;;;;;10.75;63.92;98081.89;1833373;78;25455;-51
2023/11/03 05:00:10;;;;;;;6.55;4.33;;;;;;;10.71;63.94;98077.79;1833487;78;27499;-52
2023/11/03 05:02:39;;;;;;;10.00;4.30;;;;;;;10.69;63.96;98077.93;1833333;78;25452;-50
2023/11/03 05:05:09;;;;;;;7.17;3.77;;;;;;;10.68;64.04;98079.86;1833616;78;25430;-52
2023/11/03 05:07:40;;;;;;;6.72;3.77;;;;;;;10.68;64.07;98075.80;1805847;78;26109;-52
2023/11/03 05:10:09;;;;;;;9.43;3.58;;;;;;;10.65;64.08;98073.24;1833109;78;25555;-51
2023/11/03 05:12:37;;;;;;;5.55;3.58;;;;;;;10.65;64.09;98079.23;1833539;78;27452;-52
2023/11/03 05:15:08;;;;;;;8.90;4.00;;;;;;;10.65;64.16;98079.23;1833369;78;25252;-50
2023/11/03 05:17:37;;;;;;;9.23;3.95;;;;;;;10.63;64.13;98072.83;1805955;78;25451;-51
2023/11/03 05:20:08;;;;;;;6.33;4.12;;;;;;;10.62;64.20;98064.53;1833391;78;25366;-49
2023/11/03 05:22:36;;;;;;;6.65;3.80;;;;;;;10.63;64.23;98068.00;1833429;78;25596;-50
2023/11/03 05:25:07;;;;;;;6.28;4.03;;;;;;;10.63;64.25;98062.02;1833414;78;27597;-50
2023/11/03 05:27:33;;;;;;;7.05;3.55;;;;;;;10.64;64.27;98062.23;1805709;78;25477;-50
2023/11/03 05:30:00;;;;;;;5.90;3.77;;;;;;;10.66;64.21;98055.12;1833338;78;25402;-50
2023/11/03 05:32:26;;;;;;;5.87;3.75;;;;;;;10.66;64.25;98044.30;1833272;78;25482;-51
2023/11/03 05:35:00;;;;;;;9.93;4.05;;;;;;;10.68;64.28;98043.36;1833331;78;25652;-50
2023/11/03 05:37:25;;;;;;;8.93;4.28;;;;;;;10.69;64.23;98031.38;1799576;79;27507;-50
2023/11/03 05:39:51;;;;;;;5.62;3.95;;;;;;;10.69;64.14;98030.03;1799750;79;25721;-51
2023/11/03 05:42:19;;;;;;;10.88;3.92;;;;;;;10.70;64.17;98042.42;1799838;79;25600;-51
2023/11/03 05:44:46;;;;;;;5.85;3.65;;;;;;;10.71;64.10;98037.23;1773447;79;26327;-50
2023/11/03 05:47:14;;;;;;;6.53;4.05;;;;;;;10.74;64.24;98038.41;1799948;79;25488;-54
2023/11/03 05:49:40;;;;;;;6.15;3.83;;;;;;;10.77;64.17;98045.22;1799873;79;27484;-54
2023/11/03 05:52:06;;;;;;;6.35;4.00;;;;;;;10.81;64.15;98042.01;1799764;79;25735;-51
2023/11/03 05:54:32;;;;;;;8.85;4.10;;;;;;;10.84;64.06;98035.88;1799763;79;25653;-50
2023/11/03 05:56:58;;;;;;;5.30;3.60;;;;;;;10.89;64.08;98036.70;1772639;79;25735;-50
2023/11/03 05:59:25;;;;;;;7.92;3.83;;;;;;;10.91;64.03;98039.22;1799891;79;25680;-54
2023/11/03 06:01:53;;;;;;;5.37;3.20;;;;;;;10.95;63.70;98038.72;1799804;79;29765;-54
2023/11/03 06:04:19;;;;;;;5.83;3.83;;;;;;;11.00;63.92;98035.69;1799818;79;25616;-52
2023/11/03 06:06:45;;;;;;;6.67;3.75;;;;;;;11.05;63.81;98037.31;1799763;79;25216;-51
2023/11/03 06:09:14;;;;;;;6.47;3.30;;;;;;;11.11;63.59;98032.34;1827872;78;25601;-50
2023/11/03 06:11:41;;;;;;;6.58;3.35;;;;;;;11.17;63.63;98020.06;1833345;78;25451;-51
2023/11/03 06:14:07;;;;;;;7.00;3.40;;;;;;;11.21;63.59;98020.30;1833277;78;27660;-52
2023/11/03 06:16:37;;;;;;;8.20;3.85;;;;;;;11.29;63.39;98010.90;1833182;78;25740;-54
2023/11/03 06:19:04;;;;;;;7.40;4.17;;;;;;;11.36;63.30;98023.19;1826746;78;25588;-50
2023/11/03 06:21:30;;;;;;;9.70;3.60;;;;;;;11.44;63.10;98018.61;1765841;79;26208;-54
2023/11/03 06:23:57;;;;;;;5.92;3.62;;;;;;;11.51;63.14;98015.98;1814771;79;25612;-51
2023/11/03 06:26:23;;;;;;;7.03;3.40;;;;;;;11.61;62.98;98013.19;1814729;79;27428;-51
2023/11/03 06:28:54;;;;;;;8.60;4.30;;;;;;;11.70;62.64;98009.05;1814673;79;25553;-51
2023/11/03 06:31:20;;;;;;;8.85;3.70;;;;;;;11.78;62.95;98006.61;1814794;79;25614;-51
2023/11/03 06:33:47;;;;;;;7.20;4.17;;;;;;;11.87;62.30;98015.02;1765035;79;25654;-53
2023/11/03 06:36:15;;;;;;;6.92;3.35;;;;;;;11.94;61.95;97995.55;1790596;79;25547;-50
2023/11/03 06:38:41;;;;;;;4.80;3.52;;;;;;;12.03;61.92;97980.92;1814772;79;27130;-52
2023/11/03 06:41:11;;;;;;;4.75;3.30;;;;;;;12.12;61.76;97988.14;1814591;79;25608;-52
2023/11/03 06:43:39;;;;;;;5.47;3.77;;;;;;;12.19;61.41;97984.71;1814746;79;25514;-51
2023/11/03 06:46:12;;;;;;;8.73;3.40;;;;;;;12.25;60.93;97972.38;1814847;79;25586;-51
2023/11/03 06:48:38;;;;;;;6.83;3.62;;;;;;;12.30;61.10;97976.86;1814827;79;25409;-50
2023/11/03 06:51:13;;;;;;;8.85;4.10;;;;;;;12.36;61.45;97975.95;1814684;79;29597;-52
2023/11/03 06:53:39;;;;;;;7.37;3.35;;;;;;;12.41;60.96;97972.09;1814746;79;25668;-53
2023/11/03 06:56:08;;;;;;;7.95;3.40;;;;;;;12.44;60.41;97976.17;1814787;79;25538;-55
2023/11/03 06:58:36;;;;;;;5.08;2.92;;;;;;;12.48;60.74;97957.22;1814864;79;26252;-54
2023/11/03 07:01:05;;;;;;;9.48;3.55;;;;;;;12.53;60.65;97950.08;1814815;79;25161;-52
2023/11/03 07:03:34;;;;;;;7.67;3.75;;;;;;;12.56;60.13;97945.27;1792116;79;27453;-51
2023/11/03 07:06:03;;;;;;;6.35;3.52;;;;;;;12.59;59.71;97941.03;1814772;79;27790;-54
2023/11/03 07:08:29;;;;;;;6.10;3.80;;;;;;;12.62;59.89;97941.05;1813959;77;25443;-52
2023/11/03 07:10:55;;;;;;;10.53;3.52;;;;;;;12.64;59.87;97923.81;1791891;79;25480;-50
2023/11/03 07:13:21;;;;;;;5.58;3.22;;;;;;;12.65;59.91;97944.36;1814751;79;25442;-53
2023/11/03 07:15:47;;;;;;;8.15;3.62;;;;;;;12.67;59.90;97937.97;1814650;79;27442;-52
2023/11/03 07:18:14;;;;;;;7.50;3.52;;;;;;;12.70;59.81;97946.70;1814644;79;25621;-51
2023/11/03 07:20:42;;;;;;;5.10;3.50;;;;;;;12.71;59.73;97946.89;1814659;79;25553;-51
2023/11/03 07:23:11;;;;;;;5.03;3.20;;;;;;;12.73;59.38;97947.88;1814977;79;25564;-53
2023/11/03 07:25:37;;;;;;;7.85;3.60;;;;;;;12.74;59.45;97937.82;1814882;79;32421;-52
2023/11/03 07:28:06;;;;;;;9.30;3.27;;;;;;;12.74;59.34;97941.30;1814835;79;28194;-51
2023/11/03 07:30:32;;;;;;;6.15;3.20;;;;;;;12.75;59.55;97936.64;1814620;79;25612;-52
2023/11/03 07:33:01;;;;;;;6.35;3.55;;;;;;;12.75;59.56;97929.27;1814879;79;25527;-53
2023/11/03 07:35:27;;;;;;;7.60;3.33;;;;;;;12.76;59.60;97934.91;1814625;79;25524;-50
2023/11/03 07:37:53;;;;;;;6.42;3.58;;;;;;;12.77;59.29;97937.03;1814697;79;25553;-52
2023/11/03 07:40:22;;;;;;;7.83;3.60;;;;;;;12.78;59.63;97940.72;1814727;79;27462;-51
2023/11/03 07:42:48;;;;;;;8.98;3.50;;;;;;;12.79;59.32;97953.73;1814757;79;25588;-53
2023/11/03 07:45:16;;;;;;;6.55;4.37;;;;;;;12.80;59.03;97955.27;1814622;79;25622;-52
2023/11/03 07:47:42;;;;;;;8.58;3.50;;;;;;;12.82;59.31;97961.08;1791989;79;25491;-51
2023/11/03 07:50:16;;;;;;;7.53;3.75;;;;;;;12.84;59.53;97945.23;1814981;78;25126;-55
2023/11/03 07:52:44;;;;;;;6.67;3.50;;;;;;;12.84;58.55;97926.23;1814674;78;29277;-52
2023/11/03 07:55:15;;;;;;;5.13;3.50;;;;;;;12.87;59.26;97915.39;1814893;79;25411;-53
2023/11/03 07:57:43;;;;;;;4.95;2.60;;;;;;;12.87;59.34;97924.89;1814728;79;25515;-52
2023/11/03 08:00:13;;;;;;;5.87;2.95;;;;;;;12.91;58.82;97960.17;1814694;79;25588;-51
2023/11/03 08:02:42;;;;;;;7.03;3.65;;;;;;;12.93;59.06;97938.86;1814759;79;25601;-53
2023/11/03 08:05:09;;;;;;;7.03;3.92;;;;;;;12.96;59.37;97925.12;1814801;79;27359;-51
2023/11/03 08:07:38;;;;;;;3.98;2.98;;;;;;;12.98;59.24;97939.84;1814676;79;25368;-51
2023/11/03 08:10:11;;;;;;;7.95;3.30;;;;;;;12.99;59.34;97939.25;1814809;79;25360;-51
2023/11/03 08:12:38;;;;;;;6.62;2.98;;;;;;;13.01;59.21;97945.10;1814051;78;26013;-53
2023/11/03 08:15:08;;;;;;;7.05;3.58;;;;;;;13.02;59.03;97936.55;1814691;79;25594;-56
2023/11/03 08:17:37;;;;;;;9.30;3.67;;;;;;;13.05;58.90;97944.52;1814719;79;27411;-52
2023/11/03 08:20:11;;;;;;;7.55;4.60;;;;;;;13.06;58.98;97936.59;1814414;78;25423;-52
2023/11/03 08:22:35;;;;;;;70.32;65.78;;;;;;;13.07;58.46;97935.41;1813700;78;25654;-55
2023/11/03 08:25:07;;;;;;;70.08;65.55;;;;;;;13.05;58.76;97931.72;1814610;79;25421;-58
2023/11/03 08:27:33;;;;;;;6.22;3.52;;;;;;;13.06;58.79;97937.36;1814760;79;25437;-54
2023/11/03 08:30:08;;;;;;;9.38;3.85;;;;;;;13.13;58.83;97935.25;1814809;79;28383;-54
2023/11/03 08:32:38;;;;;;;6.42;2.75;;;;;;;13.15;58.62;97937.59;1814698;79;25855;-54
2023/11/03 08:35:10;;;;;;;9.68;3.50;;;;;;;13.17;58.76;97932.55;1814793;79;25577;-54
2023/11/03 08:37:36;;;;;;;6.97;3.67;;;;;;;13.17;58.42;97927.11;1814681;79;25553;-54
2023/11/03 08:40:07;;;;;;;9.18;3.52;;;;;;;13.16;58.47;97916.84;1814718;79;25371;-55
2023/11/03 08:42:35;;;;;;;5.25;2.95;;;;;;;13.16;58.44;97927.70;1814760;79;27479;-55
2023/11/03 08:45:03;;;;;;;6.22;3.62;;;;;;;13.17;58.44;97914.31;1814741;79;25778;-54
2023/11/03 08:47:31;;;;;;;6.45;3.52;;;;;;;13.19;58.67;97916.05;1814867;79;25415;-52
2023/11/03 08:49:57;;;;;;;30.43;28.15;;;;;;;13.22;58.71;97922.67;1791424;79;26393;-56
2023/11/03 08:52:23;;;;;;;9.10;3.87;;;;;;;13.22;58.39;97924.03;1789774;79;25400;-55
2023/11/03 08:54:50;;;;;;;6.00;3.72;;;;;;;13.25;58.63;97924.62;1814796;79;27280;-55
2023/11/03 08:57:17;;;;;;;5.95;4.10;;;;;;;13.27;58.69;97912.79;1814667;77;25593;-54
2023/11/03 08:59:44;;;;;;;5.90;3.77;;;;;;;13.28;58.45;97913.00;1791467;79;25389;-57
2023/11/03 09:02:13;;;;;;;6.05;3.90;;;;;;;13.28;58.66;97921.14;1814851;79;25379;-56
2023/11/03 09:04:39;;;;;;;7.53;4.00;;;;;;;13.30;58.50;97916.10;1814942;79;25367;-51
2023/11/03 09:07:09;;;;;;;7.55;4.15;;;;;;;13.32;58.67;97932.04;1814833;79;27845;-51
2023/11/03 09:09:36;;;;;;;6.10;4.28;;;;;;;13.33;58.72;97935.73;1814777;79;25515;-54
2023/11/03 09:12:07;;;;;;;9.88;3.92;;;;;;;13.35;58.58;97914.95;1814840;79;25364;-55
2023/11/03 09:14:33;;;;;;;5.42;3.70;;;;;;;13.34;58.25;97921.56;1814886;79;26231;-55
2023/11/03 09:17:04;;;;;;;7.30;3.92;;;;;;;13.37;58.38;97914.02;1814978;79;25446;-55
2023/11/03 09:19:31;;;;;;;8.80;4.58;;;;;;;13.37;58.34;97922.16;1814828;79;28355;-54
2023/11/03 09:21:58;;;;;;;7.08;4.65;;;;;;;13.38;58.38;97904.69;1814789;79;25533;-53
2023/11/03 09:24:24;;;;;;;6.83;4.37;;;;;;;13.40;58.11;97907.23;1814784;79;25606;-53
2023/11/03 09:26:51;;;;;;;10.03;4.00;;;;;;;13.41;58.35;97921.57;1814672;78;25557;-51
2023/11/03 09:29:19;;;;;;;9.00;4.47;;;;;;;13.41;58.07;97929.13;1814829;79;25421;-55
2023/11/03 09:31:48;;;;;;;6.97;4.03;;;;;;;13.41;58.26;97928.36;1814756;79;27301;-51
2023/11/03 09:34:15;;;;;;;13.10;4.10;;;;;;;13.42;58.04;97901.41;1814830;79;25424;-52
2023/11/03 09:36:43;;;;;;;10.93;4.37;;;;;;;13.43;57.94;97902.95;1814327;78;25365;-53
2023/11/03 09:39:13;;;;;;;10.63;4.47;;;;;;;13.44;57.89;97879.48;1814850;79;25473;-55
2023/11/03 09:41:49;;;;;;;6.55;4.40;;;;;;;13.47;57.95;97894.80;1814800;79;25391;-51
2023/11/03 09:44:15;;;;;;;7.33;5.05;;;;;;;13.50;58.23;97909.77;1813527;78;28149;-51
2023/11/03 09:46:43;;;;;;;8.80;5.42;;;;;;;13.53;58.05;97907.61;1814635;79;25412;-51
2023/11/03 09:49:10;;;;;;;11.50;4.85;;;;;;;13.56;58.03;97907.44;1814828;79;25614;-52
2023/11/03 09:51:42;;;;;;;7.08;4.00;;;;;;;13.58;57.83;97892.88;1814774;79;25538;-53
2023/11/03 09:54:12;;;;;;;5.78;4.20;;;;;;;13.61;57.96;97892.12;1814816;79;25458;-51
2023/11/03 09:56:46;;;;;;;6.28;3.87;;;;;;;13.62;58.06;97889.02;1792136;79;28014;-50
2023/11/03 09:59:14;;;;;;;8.30;4.60;;;;;;;13.64;58.16;97888.63;1814731;79;25624;-51
2023/11/03 10:01:42;;;;;;;12.43;3.83;;;;;;;13.67;58.13;97897.34;1814791;79;25398;-50
2023/11/03 10:04:09;;;;;;;5.15;4.00;;;;;;;13.68;57.71;97873.09;1814818;79;25610;-52
2023/11/03 10:06:39;;;;;;;9.65;4.30;;;;;;;13.67;57.81;97872.13;1814776;79;25586;-51
2023/11/03 10:09:08;;;;;;;9.63;4.80;;;;;;;13.67;57.67;97880.27;1814876;79;27425;-58
2023/11/03 10:11:36;;;;;;;22.05;15.23;;;;;;;13.66;57.77;97876.79;1814805;79;25583;-57
2023/11/03 10:14:03;;;;;;;8.00;5.00;;;;;;;13.68;57.92;97872.33;1814798;79;25372;-54
2023/11/03 10:16:29;;;;;;;16.00;9.68;;;;;;;13.71;58.07;97870.20;1814661;79;25401;-58
2023/11/03 10:18:59;;;;;;;23.62;17.27;;;;;;;13.73;57.87;97869.22;1814738;79;25428;-56
2023/11/03 10:21:28;;;;;;;6.47;4.50;;;;;;;13.74;57.87;97860.69;1828288;78;27175;-51
2023/11/03 10:23:58;;;;;;;5.20;3.95;;;;;;;13.78;58.17;97840.30;1833352;78;25537;-51
2023/11/03 10:26:28;;;;;;;15.50;10.90;;;;;;;13.78;58.21;97820.70;1833283;78;25535;-53
2023/11/03 10:28:56;;;;;;;;;;;;;;;13.76;58.01;97854.87;1808320;78;25648;-50
2023/11/03 10:31:26;;;;;;;72.70;67.82;;;;;;;13.78;58.40;97854.66;1833174;78;25443;-52
2023/11/03 10:33:57;;;;;;;72.45;67.42;;;;;;;13.76;58.43;97832.55;1832802;78;27288;-51
2023/11/03 10:36:26;;;;;;;70.67;65.90;;;;;;;13.78;58.21;97832.92;1832995;78;25615;-53
2023/11/03 10:38:57;;;;;;;67.92;63.05;;;;;;;13.81;58.01;97844.97;1803446;78;25599;-50
2023/11/03 10:41:25;;;;;;;71.30;66.75;;;;;;;13.74;57.61;97805.00;1832907;78;25625;-50
2023/11/03 10:44:00;;;;;;;71.17;66.57;;;;;;;13.85;58.20;97831.38;1833099;78;25255;-53
2023/11/03 10:46:39;;;;;;;66.65;62.53;;;;;;;13.22;58.21;97719.09;1832958;78;27311;-51
2023/11/03 10:49:10;;;;;;;65.45;61.25;;;;;;;;;;1832519;78;25537;-52
2023/11/03 10:51:41;;;;;;;68.47;64.12;;;;;;;;;;1832791;78;25533;-49
2023/11/03 10:54:29;;;;;;;64.70;60.48;;;;;;;;;;1833239;78;25431;-52
2023/11/03 10:56:58;;;;;;;72.82;67.80;;;;;;;;;;1833406;78;25447;-52
2023/11/03 10:59:25;;;;;;;8.70;4.35;;;;;;;;;;1833245;78;27327;-50
2023/11/03 11:02:12;;;;;;;6.80;4.60;;;;;;;;;;1833178;78;25638;-49
2023/11/03 11:04:44;;;;;;;10.03;5.37;;;;;;;;;;1737651;82;25450;-52
2023/11/03 11:07:15;;;;;;;11.93;5.50;;;;;;;;;;1737509;82;25709;-51
2023/11/03 11:09:49;;;;;;;9.33;4.58;;;;;;;;;;1729530;83;25486;-51
2023/11/03 11:12:16;;;;;;;7.05;4.50;;;;;;;;;;1728705;83;27710;-51
2023/11/03 11:14:42;;;;;;;;;;;;;;;;;;1732086;83;25529;-50
2023/11/03 11:17:27;;;;;;;6.47;4.47;;;;;;;;;;1729603;83;25712;-52
2023/11/03 11:19:54;;;;;;;9.55;4.70;;;;;;;;;;1729683;83;25628;-52
2023/11/03 11:22:23;;;;;;;7.22;4.30;;;;;;;;;;1728364;83;25642;-54
2023/11/03 11:24:51;;;;;;;7.95;4.35;;;;;;;;;;1712010;82;27404;-51
2023/11/03 11:27:22;;;;;;;9.13;4.92;;;;;;;;;;1736407;82;25642;-51
2023/11/03 11:29:52;;;;;;;8.30;4.70;;;;;;;;;;1726757;83;25630;-51
2023/11/03 11:32:18;;;;;;;;;;;;;;;;;;1730837;83;25652;-52
2023/11/03 11:34:44;;;;;;;9.80;5.25;;;;;;;;;;1691162;84;25570;-52
2023/11/03 11:37:29;;;;;;;9.50;5.60;;;;;;;;;;1699160;84;27189;-52
2023/11/03 11:40:00;;;;;;;8.78;5.55;;;;;;;;;;1728296;83;25631;-52
2023/11/03 11:42:29;;;;;;;8.28;5.55;;;;;;;;;;1797390;79;25589;-54
2023/11/03 11:44:58;;;;;;;9.50;5.45;;;;;;;;;;1817214;78;25617;-52
2023/11/03 11:47:29;;;;;;;8.60;5.90;;;;;;;;;;1817475;79;25419;-53
2023/11/03 11:49:55;;;;;;;10.38;5.97;;;;;;;;;;1817340;79;27964;-52
2023/11/03 11:52:25;;;;;;;9.35;6.17;;;;;;;;;;1817269;78;25582;-54